Green Bay, WI

9:54 PM CDT on April 25, 2015 (GMT -0500)
Shadow Ridge | | Change Station
CLOSE
Current Station
Personal Weather Station
Location: De Pere, WI
Elevation: 640 ft
Nearby Weather Stations

Elev 640 ft 44.44 °N, 88.11 °W | Updated 14 seconds ago

Clear
Clear
39.6 °F
Feels Like 37 °F
N
3.7
Wind Variable Wind from NW
Gusts 6.3 mph

Today
High -- | Low -- °F
--% Chance of Precip.
Yesterday
High -- | Low -- °F
Precip. -- in
5:52 AM 7:49 PM
Waxing Crescent, 51% visible
Pressure 29.95 in
Visibility 10.0 miles
Clouds Clear
Windchill 37 °F
Dew Point 32 °F
Humidity 75%
Rainfall 0.00 in
Snow Depth Not available.
UV 0 out of 12
Pollen 8.00 out of 12
Air Quality Not available.
Flu Activity Local Activity
METAR KGRB 260153Z 03009KT 10SM CLR 06/M04 A2993 RMK AO2 SLP140 T00611044

More Conditions Fewer Conditions

Pressure 29.95 in
Visibility 10.0 miles
Clouds Clear
Windchill 37 °F
Dew Point 32 °F
Humidity 75%
Rainfall 0.00 in
Snow Depth Not available.
UV 0 out of 12
Pollen 8.00 out of 12
Air Quality Not available.
Flu Activity Local Activity
METAR KGRB 260153Z 03009KT 10SM CLR 06/M04 A2993 RMK AO2 SLP140 T00611044

More Conditions Fewer Conditions

10-Day Weather Forecast

Almanac

Astronomy

Apr. 25, 2015 Rise Set
Actual Time
Civil Twilight
Nautical Twilight
Astronomical Twilight
Moon
Length of Visible Light
Length of Day
Tomorrow will be .
, % of the Moon is Illuminated

Today's Extremes

State Highs State Lows

Community

WunderPhotos

Upload Photos

1,816,909 photos uploaded!

WunderBlogs® & News

Nearby

Air Quality

  Air Quality AQ Index Pollutant
Not available.

Snow Depth

Station Depth Elevation

Earthquake Activity

City Distance Mag. Time & Date
Minimum magnitude displayed is 2.5.

Coastal Water Temperatures

Place Temperature

Stations

Nearby Weather Stations

Station Location Temp. Windchill Dew Point Humidity Wind Precip. Elev Updated Type